sensor_id;sensor_type;location;lat;lon;timestamp;pressure;altitude;pressure_sealevel;temperature;humidity
54600;BME280;40500;51.084;16.958;2023-03-15T00:01:59;99416.90;;;2.43;100.00
54600;BME280;40500;51.084;16.958;2023-03-15T00:04:31;99417.75;;;2.43;100.00
54600;BME280;40500;51.084;16.958;2023-03-15T00:07:01;99420.69;;;2.41;100.00
54600;BME280;40500;51.084;16.958;2023-03-15T00:09:32;99425.02;;;2.40;100.00
54600;BME280;40500;51.084;16.958;2023-03-15T00:12:02;99430.72;;;2.41;100.00
54600;BME280;40500;51.084;16.958;2023-03-15T00:14:33;99439.70;;;2.40;100.00
54600;BME280;40500;51.084;16.958;2023-03-15T00:17:08;99439.17;;;2.39;100.00
54600;BME280;40500;51.084;16.958;2023-03-15T00:19:43;99442.98;;;2.39;100.00
54600;BME280;40500;51.084;16.958;2023-03-15T00:22:16;99448.34;;;2.40;100.00
54600;BME280;40500;51.084;16.958;2023-03-15T00:24:47;99458.88;;;2.41;100.00
54600;BME280;40500;51.084;16.958;2023-03-15T00:27:17;99458.02;;;2.40;100.00
54600;BME280;40500;51.084;16.958;2023-03-15T00:29:47;99462.15;;;2.40;100.00
54600;BME280;40500;51.084;16.958;2023-03-15T00:32:18;99468.38;;;2.38;100.00
54600;BME280;40500;51.084;16.958;2023-03-15T00:34:50;99478.40;;;2.38;100.00
54600;BME280;40500;51.084;16.958;2023-03-15T00:37:22;99480.98;;;2.38;100.00
54600;BME280;40500;51.084;16.958;2023-03-15T00:39:54;99487.55;;;2.36;100.00
54600;BME280;40500;51.084;16.958;2023-03-15T00:42:25;99497.23;;;2.36;100.00
54600;BME280;40500;51.084;16.958;2023-03-15T00:45:05;99510.87;;;2.35;100.00
54600;BME280;40500;51.084;16.958;2023-03-15T00:47:39;99511.73;;;2.34;100.00
54600;BME280;40500;51.084;16.958;2023-03-15T00:50:10;99508.27;;;2.33;100.00
54600;BME280;40500;51.084;16.958;2023-03-15T00:52:41;99514.48;;;2.32;100.00
54600;BME280;40500;51.084;16.958;2023-03-15T00:55:15;99513.11;;;2.31;100.00
54600;BME280;40500;51.084;16.958;2023-03-15T00:57:55;99509.98;;;2.31;100.00
54600;BME280;40500;51.084;16.958;2023-03-15T01:00:28;99514.83;;;2.29;100.00
54600;BME280;40500;51.084;16.958;2023-03-15T01:02:59;99520.70;;;2.30;100.00
54600;BME280;40500;51.084;16.958;2023-03-15T01:05:33;99519.47;;;2.27;100.00
54600;BME280;40500;51.084;16.958;2023-03-15T01:08:05;99520.15;;;2.26;100.00
54600;BME280;40500;51.084;16.958;2023-03-15T01:10:36;99519.81;;;2.24;100.00
54600;BME280;40500;51.084;16.958;2023-03-15T01:13:09;99512.55;;;2.23;100.00
54600;BME280;40500;51.084;16.958;2023-03-15T01:15:45;99515.13;;;2.20;100.00
54600;BME280;40500;51.084;16.958;2023-03-15T01:18:17;99516.34;;;2.19;100.00
54600;BME280;40500;51.084;16.958;2023-03-15T01:20:48;99519.61;;;2.17;100.00
54600;BME280;40500;51.084;16.958;2023-03-15T01:23:22;99514.95;;;2.15;100.00
54600;BME280;40500;51.084;16.958;2023-03-15T01:25:53;99515.10;;;2.14;100.00
54600;BME280;40500;51.084;16.958;2023-03-15T01:28:24;99512.16;;;2.11;100.00
54600;BME280;40500;51.084;16.958;2023-03-15T01:30:55;99510.78;;;2.09;100.00
54600;BME280;40500;51.084;16.958;2023-03-15T01:33:28;99510.94;;;2.07;100.00
54600;BME280;40500;51.084;16.958;2023-03-15T01:36:02;99513.69;;;2.05;100.00
54600;BME280;40500;51.084;16.958;2023-03-15T01:38:34;99510.23;;;2.04;100.00
54600;BME280;40500;51.084;16.958;2023-03-15T01:41:08;99503.48;;;2.02;100.00
54600;BME280;40500;51.084;16.958;2023-03-15T01:43:43;99510.38;;;1.99;100.00
54600;BME280;40500;51.084;16.958;2023-03-15T01:46:22;99522.47;;;1.98;100.00
54600;BME280;40500;51.084;16.958;2023-03-15T01:49:01;99530.39;;;1.94;100.00
54600;BME280;40500;51.084;16.958;2023-03-15T01:51:43;99533.48;;;1.90;100.00
54600;BME280;40500;51.084;16.958;2023-03-15T01:54:20;99544.36;;;1.88;100.00
54600;BME280;40500;51.084;16.958;2023-03-15T01:56:56;99550.38;;;1.87;100.00
54600;BME280;40500;51.084;16.958;2023-03-15T01:59:32;99550.05;;;1.86;100.00
54600;BME280;40500;51.084;16.958;2023-03-15T02:02:05;99557.28;;;1.86;100.00
54600;BME280;40500;51.084;16.958;2023-03-15T02:04:41;99564.36;;;1.85;100.00
54600;BME280;40500;51.084;16.958;2023-03-15T02:07:18;99572.45;;;1.84;100.00
54600;BME280;40500;51.084;16.958;2023-03-15T02:09:53;99583.66;;;1.82;100.00
54600;BME280;40500;51.084;16.958;2023-03-15T02:12:29;99590.05;;;1.82;100.00
54600;BME280;40500;51.084;16.958;2023-03-15T02:15:02;99593.33;;;1.82;100.00
54600;BME280;40500;51.084;16.958;2023-03-15T02:17:37;99593.50;;;1.82;100.00
54600;BME280;40500;51.084;16.958;2023-03-15T02:20:17;99599.20;;;1.82;100.00
54600;BME280;40500;51.084;16.958;2023-03-15T02:22:56;99601.27;;;1.81;100.00
54600;BME280;40500;51.084;16.958;2023-03-15T02:25:35;99606.44;;;1.80;100.00
54600;BME280;40500;51.084;16.958;2023-03-15T02:28:10;99606.42;;;1.78;100.00
54600;BME280;40500;51.084;16.958;2023-03-15T02:30:44;99608.84;;;1.77;100.00
54600;BME280;40500;51.084;16.958;2023-03-15T02:33:20;99611.92;;;1.74;100.00
54600;BME280;40500;51.084;16.958;2023-03-15T02:35:54;99620.54;;;1.71;100.00
54600;BME280;40500;51.084;16.958;2023-03-15T02:38:25;99632.41;;;1.67;100.00
54600;BME280;40500;51.084;16.958;2023-03-15T02:40:56;99643.60;;;1.64;100.00
54600;BME280;40500;51.084;16.958;2023-03-15T02:43:28;99643.77;;;1.63;100.00
54600;BME280;40500;51.084;16.958;2023-03-15T02:46:00;99645.31;;;1.63;100.00
54600;BME280;40500;51.084;16.958;2023-03-15T02:48:33;99650.13;;;1.61;100.00
54600;BME280;40500;51.084;16.958;2023-03-15T02:51:05;99658.57;;;1.59;100.00
54600;BME280;40500;51.084;16.958;2023-03-15T02:53:37;99664.09;;;1.58;100.00
54600;BME280;40500;51.084;16.958;2023-03-15T02:56:15;99672.02;;;1.57;100.00
54600;BME280;40500;51.084;16.958;2023-03-15T02:58:46;99670.80;;;1.55;100.00
54600;BME280;40500;51.084;16.958;2023-03-15T03:01:17;99673.36;;;1.53;100.00
54600;BME280;40500;51.084;16.958;2023-03-15T03:03:48;99681.80;;;1.50;100.00
54600;BME280;40500;51.084;16.958;2023-03-15T03:06:19;99680.41;;;1.49;100.00
54600;BME280;40500;51.084;16.958;2023-03-15T03:08:50;99684.88;;;1.47;100.00
54600;BME280;40500;51.084;16.958;2023-03-15T03:11:20;99679.51;;;1.46;100.00
54600;BME280;40500;51.084;16.958;2023-03-15T03:13:51;99676.91;;;1.45;100.00
54600;BME280;40500;51.084;16.958;2023-03-15T03:16:24;99682.24;;;1.42;100.00
54600;BME280;40500;51.084;16.958;2023-03-15T03:19:00;99688.42;;;1.40;100.00
54600;BME280;40500;51.084;16.958;2023-03-15T03:21:32;99693.07;;;1.38;100.00
54600;BME280;40500;51.084;16.958;2023-03-15T03:24:02;99692.70;;;1.37;100.00
54600;BME280;40500;51.084;16.958;2023-03-15T03:26:35;99692.70;;;1.35;100.00
54600;BME280;40500;51.084;16.958;2023-03-15T03:29:08;99697.50;;;1.33;100.00
54600;BME280;40500;51.084;16.958;2023-03-15T03:31:39;99700.41;;;1.31;100.00
54600;BME280;40500;51.084;16.958;2023-03-15T03:34:10;99698.85;;;1.29;100.00
54600;BME280;40500;51.084;16.958;2023-03-15T03:36:43;99710.39;;;1.28;100.00
54600;BME280;40500;51.084;16.958;2023-03-15T03:39:22;99709.67;;;1.26;100.00
54600;BME280;40500;51.084;16.958;2023-03-15T03:41:53;99716.03;;;1.24;100.00
54600;BME280;40500;51.084;16.958;2023-03-15T03:44:23;99726.21;;;1.23;100.00
54600;BME280;40500;51.084;16.958;2023-03-15T03:46:56;99726.73;;;1.23;100.00
54600;BME280;40500;51.084;16.958;2023-03-15T03:49:26;99729.13;;;1.23;100.00
54600;BME280;40500;51.084;16.958;2023-03-15T03:52:00;99735.47;;;1.19;100.00
54600;BME280;40500;51.084;16.958;2023-03-15T03:54:32;99730.45;;;1.18;100.00
54600;BME280;40500;51.084;16.958;2023-03-15T03:57:05;99729.91;;;1.17;100.00
54600;BME280;40500;51.084;16.958;2023-03-15T03:59:37;99727.15;;;1.16;100.00
54600;BME280;40500;51.084;16.958;2023-03-15T04:02:08;99729.56;;;1.16;100.00
54600;BME280;40500;51.084;16.958;2023-03-15T04:04:41;99727.64;;;1.13;100.00
54600;BME280;40500;51.084;16.958;2023-03-15T04:07:17;99725.55;;;1.11;100.00
54600;BME280;40500;51.084;16.958;2023-03-15T04:09:48;99726.40;;;1.10;100.00
54600;BME280;40500;51.084;16.958;2023-03-15T04:12:20;99721.39;;;1.09;100.00
54600;BME280;40500;51.084;16.958;2023-03-15T04:14:52;99725.70;;;1.09;100.00
54600;BME280;40500;51.084;16.958;2023-03-15T04:17:25;99725.17;;;1.09;100.00
54600;BME280;40500;51.084;16.958;2023-03-15T04:19:55;99726.02;;;1.08;100.00
54600;BME280;40500;51.084;16.958;2023-03-15T04:22:29;99736.88;;;1.06;100.00
54600;BME280;40500;51.084;16.958;2023-03-15T04:25:07;99741.34;;;1.04;100.00
54600;BME280;40500;51.084;16.958;2023-03-15T04:27:51;99747.66;;;1.00;100.00
54600;BME280;40500;51.084;16.958;2023-03-15T04:30:49;99764.34;;;0.98;100.00
54600;BME280;40500;51.084;16.958;2023-03-15T04:33:39;99768.45;;;0.95;100.00
54600;BME280;40500;51.084;16.958;2023-03-15T04:36:37;99775.67;;;0.93;100.00
54600;BME280;40500;51.084;16.958;2023-03-15T04:39:31;99779.63;;;0.93;100.00
54600;BME280;40500;51.084;16.958;2023-03-15T04:42:11;99784.27;;;0.91;100.00
54600;BME280;40500;51.084;16.958;2023-03-15T04:45:09;99793.05;;;0.92;100.00
54600;BME280;40500;51.084;16.958;2023-03-15T04:47:39;99795.64;;;0.90;100.00
54600;BME280;40500;51.084;16.958;2023-03-15T04:50:31;99792.87;;;0.89;100.00
54600;BME280;40500;51.084;16.958;2023-03-15T04:53:12;99796.14;;;0.90;100.00
54600;BME280;40500;51.084;16.958;2023-03-15T04:55:49;99801.30;;;0.89;100.00
54600;BME280;40500;51.084;16.958;2023-03-15T04:58:40;99803.50;;;0.86;100.00
54600;BME280;40500;51.084;16.958;2023-03-15T05:01:32;99804.86;;;0.85;100.00
54600;BME280;40500;51.084;16.958;2023-03-15T05:04:32;99810.88;;;0.84;100.00
54600;BME280;40500;51.084;16.958;2023-03-15T05:07:17;99817.60;;;0.84;100.00
54600;BME280;40500;51.084;16.958;2023-03-15T05:10:18;99821.55;;;0.83;100.00
54600;BME280;40500;51.084;16.958;2023-03-15T05:13:07;99820.50;;;0.82;100.00
54600;BME280;40500;51.084;16.958;2023-03-15T05:15:59;99823.95;;;0.82;100.00
54600;BME280;40500;51.084;16.958;2023-03-15T05:18:44;99824.64;;;0.82;100.00
54600;BME280;40500;51.084;16.958;2023-03-15T05:21:14;99827.05;;;0.82;100.00
54600;BME280;40500;51.084;16.958;2023-03-15T05:24:11;99829.64;;;0.82;100.00
54600;BME280;40500;51.084;16.958;2023-03-15T05:27:21;99836.35;;;0.81;100.00
54600;BME280;40500;51.084;16.958;2023-03-15T05:30:08;99840.30;;;0.80;100.00
54600;BME280;40500;51.084;16.958;2023-03-15T05:33:01;99851.31;;;0.79;100.00
54600;BME280;40500;51.084;16.958;2023-03-15T05:35:52;99855.48;;;0.80;100.00
54600;BME280;40500;51.084;16.958;2023-03-15T05:38:41;99862.20;;;0.81;100.00
54600;BME280;40500;51.084;16.958;2023-03-15T05:41:39;99861.54;;;0.83;100.00
54600;BME280;40500;51.084;16.958;2023-03-15T05:44:30;99870.00;;;0.84;100.00
54600;BME280;40500;51.084;16.958;2023-03-15T05:47:20;99875.20;;;0.86;100.00
54600;BME280;40500;51.084;16.958;2023-03-15T05:50:11;99882.11;;;0.87;100.00
54600;BME280;40500;51.084;16.958;2023-03-15T05:53:12;99883.02;;;0.90;100.00
54600;BME280;40500;51.084;16.958;2023-03-15T05:56:03;99882.23;;;0.94;100.00
54600;BME280;40500;51.084;16.958;2023-03-15T05:58:52;99893.63;;;0.96;100.00
54600;BME280;40500;51.084;16.958;2023-03-15T06:01:42;99897.95;;;0.98;100.00
54600;BME280;40500;51.084;16.958;2023-03-15T06:04:27;99893.02;;;1.01;100.00
54600;BME280;40500;51.084;16.958;2023-03-15T06:06:58;99900.29;;;1.04;100.00
54600;BME280;40500;51.084;16.958;2023-03-15T06:09:35;99906.39;;;1.08;100.00
54600;BME280;40500;51.084;16.958;2023-03-15T06:12:08;99914.54;;;1.12;100.00
54600;BME280;40500;51.084;16.958;2023-03-15T06:14:39;99922.52;;;1.15;100.00
54600;BME280;40500;51.084;16.958;2023-03-15T06:17:10;99926.00;;;1.17;100.00
54600;BME280;40500;51.084;16.958;2023-03-15T06:19:44;99929.98;;;1.19;100.00
54600;BME280;40500;51.084;16.958;2023-03-15T06:22:16;99932.66;;;1.24;100.00
54600;BME280;40500;51.084;16.958;2023-03-15T06:24:56;99936.71;;;1.31;100.00
54600;BME280;40500;51.084;16.958;2023-03-15T06:27:33;99942.51;;;1.38;100.00
54600;BME280;40500;51.084;16.958;2023-03-15T06:30:07;99950.23;;;1.46;100.00
54600;BME280;40500;51.084;16.958;2023-03-15T06:32:37;99952.35;;;1.52;100.00
54600;BME280;40500;51.084;16.958;2023-03-15T06:35:08;99959.35;;;1.58;100.00
54600;BME280;40500;51.084;16.958;2023-03-15T06:37:39;99964.07;;;1.64;100.00
54600;BME280;40500;51.084;16.958;2023-03-15T06:40:12;99967.60;;;1.69;100.00
54600;BME280;40500;51.084;16.958;2023-03-15T06:42:43;99973.75;;;1.77;100.00
54600;BME280;40500;51.084;16.958;2023-03-15T06:45:16;99972.11;;;1.84;100.00
54600;BME280;40500;51.084;16.958;2023-03-15T06:47:46;99977.38;;;1.92;100.00
54600;BME280;40500;51.084;16.958;2023-03-15T06:50:18;99981.45;;;2.01;100.00
54600;BME280;40500;51.084;16.958;2023-03-15T06:52:49;99987.78;;;2.10;100.00
54600;BME280;40500;51.084;16.958;2023-03-15T06:55:19;99985.11;;;2.17;100.00
54600;BME280;40500;51.084;16.958;2023-03-15T06:57:50;99991.75;;;2.24;100.00
54600;BME280;40500;51.084;16.958;2023-03-15T07:00:23;99999.58;;;2.30;100.00
54600;BME280;40500;51.084;16.958;2023-03-15T07:02:53;99999.33;;;2.38;100.00
54600;BME280;40500;51.084;16.958;2023-03-15T07:05:25;99996.46;;;2.45;100.00
54600;BME280;40500;51.084;16.958;2023-03-15T07:07:56;99998.23;;;2.48;100.00
54600;BME280;40500;51.084;16.958;2023-03-15T07:10:26;100001.40;;;2.54;100.00
54600;BME280;40500;51.084;16.958;2023-03-15T07:12:58;100002.14;;;2.61;100.00
54600;BME280;40500;51.084;16.958;2023-03-15T07:15:29;99999.77;;;2.64;100.00
54600;BME280;40500;51.084;16.958;2023-03-15T07:17:59;100003.63;;;2.70;100.00
54600;BME280;40500;51.084;16.958;2023-03-15T07:20:30;100006.47;;;2.77;100.00
54600;BME280;40500;51.084;16.958;2023-03-15T07:23:00;100008.73;;;2.82;100.00
54600;BME280;40500;51.084;16.958;2023-03-15T07:25:31;100011.55;;;2.86;100.00
54600;BME280;40500;51.084;16.958;2023-03-15T07:28:20;100008.65;;;2.91;100.00
54600;BME280;40500;51.084;16.958;2023-03-15T07:30:56;100011.79;;;2.93;100.00
54600;BME280;40500;51.084;16.958;2023-03-15T07:33:28;100016.27;;;2.92;100.00
54600;BME280;40500;51.084;16.958;2023-03-15T07:35:58;100021.98;;;2.92;100.00
54600;BME280;40500;51.084;16.958;2023-03-15T07:38:29;100017.18;;;2.96;100.00
54600;BME280;40500;51.084;16.958;2023-03-15T07:41:02;100022.25;;;3.03;100.00
54600;BME280;40500;51.084;16.958;2023-03-15T07:43:33;100028.19;;;3.08;100.00
54600;BME280;40500;51.084;16.958;2023-03-15T07:46:14;100037.84;;;3.24;100.00
54600;BME280;40500;51.084;16.958;2023-03-15T07:48:44;100037.20;;;3.34;100.00
54600;BME280;40500;51.084;16.958;2023-03-15T07:51:18;100039.20;;;3.45;100.00
54600;BME280;40500;51.084;16.958;2023-03-15T07:53:50;100033.73;;;3.57;100.00
54600;BME280;40500;51.084;16.958;2023-03-15T07:56:20;100041.58;;;3.64;100.00
54600;BME280;40500;51.084;16.958;2023-03-15T07:58:51;100041.93;;;3.65;100.00
54600;BME280;40500;51.084;16.958;2023-03-15T08:01:21;100038.52;;;3.75;100.00
54600;BME280;40500;51.084;16.958;2023-03-15T08:03:52;100043.56;;;3.78;100.00
54600;BME280;40500;51.084;16.958;2023-03-15T08:06:22;100046.98;;;3.72;100.00
54600;BME280;40500;51.084;16.958;2023-03-15T08:08:52;100048.86;;;3.66;100.00
54600;BME280;40500;51.084;16.958;2023-03-15T08:11:23;100056.98;;;3.62;100.00
54600;BME280;40500;51.084;16.958;2023-03-15T08:13:53;100068.35;;;3.55;100.00
54600;BME280;40500;51.084;16.958;2023-03-15T08:16:23;100066.64;;;3.58;100.00
54600;BME280;40500;51.084;16.958;2023-03-15T08:18:54;100063.23;;;3.64;100.00
54600;BME280;40500;51.084;16.958;2023-03-15T08:21:24;100071.58;;;3.71;100.00
54600;BME280;40500;51.084;16.958;2023-03-15T08:23:55;100067.57;;;3.69;100.00
54600;BME280;40500;51.084;16.958;2023-03-15T08:26:25;100071.02;;;3.64;100.00
54600;BME280;40500;51.084;16.958;2023-03-15T08:28:56;100074.60;;;3.59;100.00
54600;BME280;40500;51.084;16.958;2023-03-15T08:31:26;100075.77;;;3.52;100.00
54600;BME280;40500;51.084;16.958;2023-03-15T08:33:57;100078.23;;;3.57;100.00
54600;BME280;40500;51.084;16.958;2023-03-15T08:36:28;100075.86;;;3.64;100.00
54600;BME280;40500;51.084;16.958;2023-03-15T08:39:00;100083.67;;;3.70;100.00
54600;BME280;40500;51.084;16.958;2023-03-15T08:41:33;100086.15;;;3.72;100.00
54600;BME280;40500;51.084;16.958;2023-03-15T08:44:04;100086.48;;;3.75;100.00
54600;BME280;40500;51.084;16.958;2023-03-15T08:46:34;100087.57;;;3.81;100.00
54600;BME280;40500;51.084;16.958;2023-03-15T08:49:05;100089.52;;;3.88;100.00
54600;BME280;40500;51.084;16.958;2023-03-15T08:51:35;100096.85;;;3.94;100.00
54600;BME280;40500;51.084;16.958;2023-03-15T08:54:06;100095.27;;;3.96;100.00
54600;BME280;40500;51.084;16.958;2023-03-15T08:56:36;100093.61;;;4.05;100.00
54600;BME280;40500;51.084;16.958;2023-03-15T08:59:07;100098.66;;;4.07;100.00
54600;BME280;40500;51.084;16.958;2023-03-15T09:01:39;100096.07;;;4.12;100.00
54600;BME280;40500;51.084;16.958;2023-03-15T09:04:09;100098.36;;;4.20;100.00
54600;BME280;40500;51.084;16.958;2023-03-15T09:06:40;100105.67;;;4.27;100.00
54600;BME280;40500;51.084;16.958;2023-03-15T09:09:11;100108.48;;;4.31;100.00
54600;BME280;40500;51.084;16.958;2023-03-15T09:11:45;100108.48;;;4.38;100.00
54600;BME280;40500;51.084;16.958;2023-03-15T09:14:16;100104.88;;;4.41;100.00
54600;BME280;40500;51.084;16.958;2023-03-15T09:16:46;100107.34;;;4.49;100.00
54600;BME280;40500;51.084;16.958;2023-03-15T09:19:16;100105.77;;;4.47;100.00
54600;BME280;40500;51.084;16.958;2023-03-15T09:21:47;100108.52;;;4.41;100.00
54600;BME280;40500;51.084;16.958;2023-03-15T09:24:17;100110.24;;;4.40;100.00
54600;BME280;40500;51.084;16.958;2023-03-15T09:26:47;100114.21;;;4.36;100.00
54600;BME280;40500;51.084;16.958;2023-03-15T09:29:21;100118.20;;;4.35;100.00
54600;BME280;40500;51.084;16.958;2023-03-15T09:31:51;100112.66;;;4.38;100.00
54600;BME280;40500;51.084;16.958;2023-03-15T09:34:21;100113.87;;;4.36;100.00
54600;BME280;40500;51.084;16.958;2023-03-15T09:36:55;100117.34;;;4.40;100.00
54600;BME280;40500;51.084;16.958;2023-03-15T09:39:25;100119.12;;;4.48;100.00
54600;BME280;40500;51.084;16.958;2023-03-15T09:42:00;100121.76;;;4.57;100.00
54600;BME280;40500;51.084;16.958;2023-03-15T09:44:40;100118.33;;;4.63;100.00
54600;BME280;40500;51.084;16.958;2023-03-15T09:47:25;100124.73;;;4.63;100.00
54600;BME280;40500;51.084;16.958;2023-03-15T09:50:03;100134.25;;;4.59;100.00
54600;BME280;40500;51.084;16.958;2023-03-15T09:52:41;100139.10;;;4.57;100.00
54600;BME280;40500;51.084;16.958;2023-03-15T09:55:16;100137.01;;;4.54;100.00
54600;BME280;40500;51.084;16.958;2023-03-15T09:57:51;100130.61;;;4.58;100.00
54600;BME280;40500;51.084;16.958;2023-03-15T10:00:29;100129.57;;;4.59;100.00
54600;BME280;40500;51.084;16.958;2023-03-15T10:03:02;100131.31;;;4.62;100.00
54600;BME280;40500;51.084;16.958;2023-03-15T10:05:41;100130.31;;;4.71;100.00
54600;BME280;40500;51.084;16.958;2023-03-15T10:08:15;100133.98;;;4.82;100.00
54600;BME280;40500;51.084;16.958;2023-03-15T10:10:51;100128.46;;;4.89;100.00
54600;BME280;40500;51.084;16.958;2023-03-15T10:13:35;100129.69;;;4.98;100.00
54600;BME280;40500;51.084;16.958;2023-03-15T10:16:21;100127.63;;;5.06;100.00
54600;BME280;40500;51.084;16.958;2023-03-15T10:19:04;100122.95;;;5.09;100.00
54600;BME280;40500;51.084;16.958;2023-03-15T10:21:42;100112.89;;;5.10;100.00
54600;BME280;40500;51.084;16.958;2023-03-15T10:24:22;100113.95;;;5.19;100.00
54600;BME280;40500;51.084;16.958;2023-03-15T10:26:54;100105.80;;;5.26;100.00
54600;BME280;40500;51.084;16.958;2023-03-15T10:29:29;100105.10;;;5.30;100.00
54600;BME280;40500;51.084;16.958;2023-03-15T10:32:00;100108.41;;;5.35;100.00
54600;BME280;40500;51.084;16.958;2023-03-15T10:34:31;100108.94;;;5.42;100.00
54600;BME280;40500;51.084;16.958;2023-03-15T10:37:01;100110.48;;;5.48;100.00
54600;BME280;40500;51.084;16.958;2023-03-15T10:39:34;100108.23;;;5.55;100.00
54600;BME280;40500;51.084;16.958;2023-03-15T10:42:05;100110.14;;;5.62;100.00
54600;BME280;40500;51.084;16.958;2023-03-15T10:44:36;100121.42;;;5.68;100.00
54600;BME280;40500;51.084;16.958;2023-03-15T10:47:12;100112.23;;;5.75;100.00
54600;BME280;40500;51.084;16.958;2023-03-15T10:49:56;100115.34;;;5.84;100.00
54600;BME280;40500;51.084;16.958;2023-03-15T10:52:32;100112.55;;;5.87;100.00
54600;BME280;40500;51.084;16.958;2023-03-15T10:55:06;100115.86;;;5.96;100.00
54600;BME280;40500;51.084;16.958;2023-03-15T10:57:49;100116.52;;;6.20;100.00
54600;BME280;40500;51.084;16.958;2023-03-15T11:00:29;100116.98;;;6.37;100.00
54600;BME280;40500;51.084;16.958;2023-03-15T11:03:04;100118.53;;;6.40;100.00
54600;BME280;40500;51.084;16.958;2023-03-15T11:05:41;100118.88;;;6.39;100.00
54600;BME280;40500;51.084;16.958;2023-03-15T11:08:14;100124.29;;;6.36;100.00
54600;BME280;40500;51.084;16.958;2023-03-15T11:10:49;100122.73;;;6.36;100.00
54600;BME280;40500;51.084;16.958;2023-03-15T11:13:25;100124.63;;;6.39;100.00
54600;BME280;40500;51.084;16.958;2023-03-15T11:16:01;100118.02;;;6.42;100.00
54600;BME280;40500;51.084;16.958;2023-03-15T11:18:42;100116.09;;;6.48;100.00
54600;BME280;40500;51.084;16.958;2023-03-15T11:21:16;100110.70;;;6.47;100.00
54600;BME280;40500;51.084;16.958;2023-03-15T11:23:49;100120.45;;;6.38;100.00
54600;BME280;40500;51.084;16.958;2023-03-15T11:26:22;100120.98;;;6.36;100.00
54600;BME280;40500;51.084;16.958;2023-03-15T11:29:05;100123.60;;;6.35;100.00
54600;BME280;40500;51.084;16.958;2023-03-15T11:31:37;100128.77;;;6.47;100.00
54600;BME280;40500;51.084;16.958;2023-03-15T11:34:10;100126.10;;;6.66;100.00
54600;BME280;40500;51.084;16.958;2023-03-15T11:36:45;100120.63;;;6.84;100.00
54600;BME280;40500;51.084;16.958;2023-03-15T11:39:31;100126.93;;;7.06;100.00
54600;BME280;40500;51.084;16.958;2023-03-15T11:42:07;100122.38;;;7.12;100.00
54600;BME280;40500;51.084;16.958;2023-03-15T11:44:42;100126.69;;;7.19;100.00
54600;BME280;40500;51.084;16.958;2023-03-15T11:47:19;100127.73;;;7.19;100.00
54600;BME280;40500;51.084;16.958;2023-03-15T11:49:54;100123.91;;;7.16;100.00
54600;BME280;40500;51.084;16.958;2023-03-15T11:52:27;100119.48;;;7.28;100.00
54600;BME280;40500;51.084;16.958;2023-03-15T11:55:02;100114.11;;;7.45;100.00
54600;BME280;40500;51.084;16.958;2023-03-15T11:57:38;100117.15;;;7.57;100.00
54600;BME280;40500;51.084;16.958;2023-03-15T12:03:31;100122.84;;;7.86;100.00
54600;BME280;40500;51.084;16.958;2023-03-15T12:06:08;100124.35;;;7.91;100.00
54600;BME280;40500;51.084;16.958;2023-03-15T12:08:44;100117.08;;;7.86;100.00
54600;BME280;40500;51.084;16.958;2023-03-15T12:11:34;100119.90;;;7.63;100.00
54600;BME280;40500;51.084;16.958;2023-03-15T12:14:19;100121.14;;;7.40;100.00
54600;BME280;40500;51.084;16.958;2023-03-15T12:16:50;100120.52;;;7.26;100.00
54600;BME280;40500;51.084;16.958;2023-03-15T12:19:24;100122.35;;;7.14;100.00
54600;BME280;40500;51.084;16.958;2023-03-15T12:21:57;100124.88;;;7.00;100.00
54600;BME280;40500;51.084;16.958;2023-03-15T12:24:29;100118.48;;;6.94;100.00
54600;BME280;40500;51.084;16.958;2023-03-15T12:27:02;100122.27;;;7.00;100.00
54600;BME280;40500;51.084;16.958;2023-03-15T12:29:35;100115.23;;;7.10;100.00
54600;BME280;40500;51.084;16.958;2023-03-15T12:32:10;100114.90;;;7.36;100.00
54600;BME280;40500;51.084;16.958;2023-03-15T12:34:47;100113.58;;;7.48;100.00
54600;BME280;40500;51.084;16.958;2023-03-15T12:37:21;100116.00;;;7.49;100.00
54600;BME280;40500;51.084;16.958;2023-03-15T12:40:00;100117.98;;;7.63;100.00
54600;BME280;40500;51.084;16.958;2023-03-15T12:43:00;100110.31;;;8.00;100.00
54600;BME280;40500;51.084;16.958;2023-03-15T12:45:40;100110.46;;;9.59;97.59
54600;BME280;40500;51.084;16.958;2023-03-15T12:48:21;100104.73;;;10.37;86.50
54600;BME280;40500;51.084;16.958;2023-03-15T12:51:00;100109.36;;;9.21;94.31
54600;BME280;40500;51.084;16.958;2023-03-15T12:53:50;100116.23;;;8.51;99.93
54600;BME280;40500;51.084;16.958;2023-03-15T12:56:38;100115.09;;;7.93;100.00
54600;BME280;40500;51.084;16.958;2023-03-15T12:59:19;100120.67;;;7.55;100.00
54600;BME280;40500;51.084;16.958;2023-03-15T13:01:50;100126.02;;;7.39;100.00
54600;BME280;40500;51.084;16.958;2023-03-15T13:04:22;100125.23;;;7.50;100.00
54600;BME280;40500;51.084;16.958;2023-03-15T13:07:00;100131.90;;;7.86;100.00
54600;BME280;40500;51.084;16.958;2023-03-15T13:09:47;100125.38;;;7.93;100.00
54600;BME280;40500;51.084;16.958;2023-03-15T13:12:26;100130.89;;;8.01;100.00
54600;BME280;40500;51.084;16.958;2023-03-15T13:15:01;100135.23;;;7.84;100.00
54600;BME280;40500;51.084;16.958;2023-03-15T13:17:41;100138.52;;;7.66;100.00
54600;BME280;40500;51.084;16.958;2023-03-15T13:20:28;100144.06;;;7.89;100.00
54600;BME280;40500;51.084;16.958;2023-03-15T13:23:14;100142.44;;;8.63;100.00
54600;BME280;40500;51.084;16.958;2023-03-15T13:25:53;100145.15;;;9.34;100.00
54600;BME280;40500;51.084;16.958;2023-03-15T13:28:31;100144.08;;;9.91;97.96
54600;BME280;40500;51.084;16.958;2023-03-15T13:31:20;100149.47;;;9.49;95.62
54600;BME280;40500;51.084;16.958;2023-03-15T13:33:53;100155.56;;;9.03;97.27